createdAt,value
2022-08-04T00:00:10.379Z,25.05
2022-08-04T00:02:59.670Z,25.46
2022-08-04T00:05:51.043Z,25.83
2022-08-04T00:08:43.630Z,25.33
2022-08-04T00:11:15.519Z,25.77
2022-08-04T00:13:58.174Z,25.33
2022-08-04T00:16:38.013Z,25.54
2022-08-04T00:19:11.983Z,26.20
2022-08-04T00:21:46.622Z,26.29
2022-08-04T00:24:16.017Z,26.07
2022-08-04T00:26:43.807Z,25.41
2022-08-04T00:29:10.755Z,25.49
2022-08-04T00:31:55.922Z,24.89
2022-08-04T00:34:29.603Z,24.91
2022-08-04T00:36:58.008Z,24.83
2022-08-04T00:39:26.376Z,25.26
2022-08-04T00:42:01.458Z,25.11
2022-08-04T00:44:31.239Z,25.33
2022-08-04T00:47:16.706Z,24.37
2022-08-04T00:50:18.648Z,25.23
2022-08-04T00:53:06.552Z,24.34
2022-08-04T00:56:23.749Z,24.20
2022-08-04T00:58:59.329Z,25.06
2022-08-04T01:01:51.662Z,24.63
2022-08-04T01:05:02.341Z,25.64
2022-08-04T01:07:43.337Z,25.16
2022-08-04T01:10:38.219Z,24.57
2022-08-04T01:13:07.862Z,24.89
2022-08-04T01:16:02.411Z,22.98
2022-08-04T01:18:44.662Z,24.43
2022-08-04T01:21:29.467Z,25.25
2022-08-04T01:24:14.518Z,24.92
2022-08-04T01:27:06.113Z,25.63
2022-08-04T01:29:49.214Z,25.03
2022-08-04T01:32:36.862Z,25.00
2022-08-04T01:35:47.912Z,24.18
2022-08-04T01:38:26.930Z,25.16
2022-08-04T01:40:57.530Z,25.51
2022-08-04T01:43:24.883Z,25.68
2022-08-04T01:46:00.007Z,24.85
2022-08-04T01:48:28.575Z,24.64
2022-08-04T01:51:03.153Z,24.86
2022-08-04T01:53:34.089Z,25.35
2022-08-04T01:56:06.106Z,24.22
2022-08-04T01:58:35.106Z,24.34
2022-08-04T02:01:03.343Z,24.35
2022-08-04T02:04:19.594Z,24.32
2022-08-04T02:06:49.725Z,24.16
2022-08-04T02:09:31.482Z,24.64
2022-08-04T02:12:17.433Z,25.09
2022-08-04T02:15:00.234Z,24.80
2022-08-04T02:17:41.338Z,23.77
2022-08-04T02:20:15.327Z,23.83
2022-08-04T02:22:58.882Z,22.56
2022-08-04T02:25:28.270Z,24.17
2022-08-04T02:28:00.423Z,23.86
2022-08-04T02:30:39.967Z,24.95
2022-08-04T02:33:07.804Z,24.14
2022-08-04T02:35:38.638Z,24.97
2022-08-04T02:38:39.242Z,23.55
2022-08-04T02:41:07.796Z,24.58
2022-08-04T02:43:51.703Z,25.37
2022-08-04T02:46:21.143Z,25.17
2022-08-04T02:48:49.998Z,24.86
2022-08-04T02:51:20.289Z,25.37
2022-08-04T02:53:50.489Z,25.41
2022-08-04T02:56:20.312Z,24.55
2022-08-04T02:58:51.649Z,25.30
2022-08-04T03:01:18.618Z,25.28
2022-08-04T03:04:24.556Z,24.71
2022-08-04T03:07:29.079Z,24.57
2022-08-04T03:10:21.448Z,24.55
2022-08-04T03:13:02.361Z,25.00
2022-08-04T03:15:32.058Z,25.13
2022-08-04T03:18:23.794Z,24.99
2022-08-04T03:21:22.511Z,25.06
2022-08-04T03:24:10.677Z,24.96
2022-08-04T03:26:49.293Z,24.99
2022-08-04T03:29:49.547Z,25.07
2022-08-04T03:32:46.888Z,24.93
2022-08-04T03:35:28.760Z,24.28
2022-08-04T03:38:24.053Z,23.62
2022-08-04T03:40:59.782Z,24.02
2022-08-04T03:43:59.978Z,24.50
2022-08-04T03:46:48.565Z,23.86
2022-08-04T03:49:30.285Z,23.50
2022-08-04T03:52:50.639Z,24.50
2022-08-04T03:55:35.873Z,23.83
2022-08-04T03:58:30.546Z,24.49
2022-08-04T04:01:17.717Z,23.87
2022-08-04T04:04:21.914Z,24.47
2022-08-04T04:07:17.541Z,25.32
2022-08-04T04:09:57.498Z,24.73
2022-08-04T04:12:46.240Z,24.59
2022-08-04T04:15:39.391Z,24.39
2022-08-04T04:18:31.260Z,24.34
2022-08-04T04:21:19.498Z,24.66
2022-08-04T04:24:24.414Z,24.80
2022-08-04T04:27:12.700Z,24.54
2022-08-04T04:30:12.811Z,24.39
2022-08-04T04:32:45.371Z,25.22
2022-08-04T04:35:15.096Z,24.14
2022-08-04T04:38:02.018Z,25.88
2022-08-04T04:41:16.007Z,25.23
2022-08-04T04:44:00.982Z,24.57
2022-08-04T04:46:41.308Z,23.48
2022-08-04T04:49:14.231Z,25.33
2022-08-04T04:52:00.473Z,24.41
2022-08-04T04:54:56.239Z,23.05
2022-08-04T04:57:53.313Z,25.30
2022-08-04T05:00:13.736Z,25.31
2022-08-04T05:02:49.513Z,25.68
2022-08-04T05:05:33.671Z,25.56
2022-08-04T05:08:43.561Z,24.31
2022-08-04T05:11:13.671Z,24.70
2022-08-04T05:14:36.277Z,25.04
2022-08-04T05:16:46.440Z,25.18
2022-08-04T05:19:38.842Z,26.11
2022-08-04T05:22:30.718Z,25.36
2022-08-04T05:25:08.655Z,24.57
2022-08-04T05:27:40.527Z,24.41
2022-08-04T05:30:09.005Z,25.72
2022-08-04T05:32:48.302Z,25.85
2022-08-04T05:35:56.307Z,26.15
2022-08-04T05:38:18.675Z,25.94
2022-08-04T05:40:46.751Z,25.55
2022-08-04T05:43:15.896Z,25.83
2022-08-04T05:45:44.831Z,26.13
2022-08-04T05:48:11.968Z,27.16
2022-08-04T05:50:39.184Z,28.28
2022-08-04T05:53:07.098Z,28.76
2022-08-04T05:55:57.240Z,29.48
2022-08-04T05:58:22.189Z,27.53
2022-08-04T06:00:52.418Z,28.59
2022-08-04T06:03:22.319Z,28.82
2022-08-04T06:05:50.350Z,28.46
2022-08-04T06:08:17.487Z,28.13
2022-08-04T06:10:46.539Z,29.18
2022-08-04T06:13:46.688Z,29.13
2022-08-04T06:16:05.731Z,29.49
2022-08-04T06:20:00.896Z,28.77
2022-08-04T06:21:23.567Z,29.59
2022-08-04T06:23:53.634Z,29.72
2022-08-04T06:26:30.074Z,31.01
2022-08-04T06:28:57.677Z,29.73
2022-08-04T06:32:31.690Z,31.17
2022-08-04T06:34:35.313Z,31.76
2022-08-04T06:37:03.118Z,30.20
2022-08-04T06:39:32.118Z,31.15
2022-08-04T06:42:17.450Z,31.94
2022-08-04T06:44:50.132Z,32.36
2022-08-04T06:47:21.338Z,32.71
2022-08-04T06:51:27.794Z,33.00
2022-08-04T06:52:39.183Z,34.00
2022-08-04T06:55:07.974Z,34.13
2022-08-04T06:57:37.182Z,33.97
2022-08-04T07:00:03.906Z,32.66
2022-08-04T07:02:38.961Z,32.88
2022-08-04T07:05:08.036Z,30.84
2022-08-04T07:07:37.162Z,30.51
2022-08-04T07:10:24.869Z,33.48
2022-08-04T07:12:53.852Z,34.96
2022-08-04T07:15:21.867Z,35.68
2022-08-04T07:17:52.150Z,34.96
2022-08-04T07:20:35.021Z,35.09
2022-08-04T07:23:04.651Z,33.99
2022-08-04T07:26:00.278Z,34.77
2022-08-04T07:28:21.193Z,33.26
2022-08-04T07:30:49.580Z,35.93
2022-08-04T07:33:18.201Z,35.82
2022-08-04T07:36:09.368Z,33.33
2022-08-04T07:38:37.571Z,33.48
2022-08-04T07:43:54.904Z,34.99
2022-08-04T07:46:21.848Z,35.88
2022-08-04T07:48:48.774Z,31.84
2022-08-04T07:51:16.984Z,36.50
2022-08-04T07:53:55.496Z,34.62
2022-08-04T07:56:23.199Z,36.37
2022-08-04T07:58:50.491Z,35.82
2022-08-04T08:01:19.168Z,35.32
2022-08-04T08:03:46.669Z,34.51
2022-08-04T08:06:30.780Z,32.50
2022-08-04T08:09:13.276Z,34.00
2022-08-04T08:12:36.854Z,35.39
2022-08-04T08:14:30.847Z,37.07
2022-08-04T08:17:02.528Z,34.82
2022-08-04T08:19:31.366Z,37.63
2022-08-04T08:22:00.545Z,36.70
2022-08-04T08:24:35.450Z,37.35
2022-08-04T08:27:06.854Z,37.21
2022-08-04T08:29:35.136Z,38.77
2022-08-04T08:32:08.316Z,35.74
2022-08-04T08:34:37.769Z,35.97
2022-08-04T08:37:24.420Z,35.98
2022-08-04T08:40:04.514Z,34.33
2022-08-04T08:42:40.400Z,35.91
2022-08-04T08:45:38.136Z,36.84
2022-08-04T08:48:26.543Z,38.18
2022-08-04T08:51:11.469Z,38.36
2022-08-04T08:53:41.283Z,38.46
2022-08-04T08:56:30.946Z,38.46
2022-08-04T08:59:37.357Z,37.97
2022-08-04T09:02:45.217Z,40.00
2022-08-04T09:05:41.790Z,36.36
2022-08-04T09:08:11.334Z,39.29
2022-08-04T09:10:58.903Z,38.23
2022-08-04T09:13:45.761Z,39.32
2022-08-04T09:16:15.539Z,39.60
2022-08-04T09:19:02.598Z,37.48
2022-08-04T09:21:39.567Z,38.19
2022-08-04T09:24:37.194Z,38.15
2022-08-04T09:27:13.915Z,38.65
2022-08-04T09:29:48.512Z,38.43
2022-08-04T09:32:44.785Z,37.55
2022-08-04T09:35:33.647Z,38.08
2022-08-04T09:38:26.403Z,38.57
2022-08-04T09:41:26.893Z,38.68
2022-08-04T09:44:49.241Z,36.53
2022-08-04T09:47:39.379Z,39.81
2022-08-04T09:50:39.067Z,39.95
2022-08-04T09:53:38.523Z,38.29
2022-08-04T09:56:28.575Z,40.37
2022-08-04T09:59:26.968Z,39.31
2022-08-04T10:01:59.757Z,41.26
2022-08-04T10:04:31.385Z,39.62
2022-08-04T10:07:02.523Z,38.87
2022-08-04T10:10:14.344Z,40.50
2022-08-04T10:12:55.640Z,39.83
2022-08-04T10:15:36.381Z,40.47
2022-08-04T10:18:22.743Z,40.79
2022-08-04T10:21:13.622Z,37.82
2022-08-04T10:24:07.644Z,38.74
2022-08-04T10:27:00.217Z,38.54
2022-08-04T10:29:38.979Z,36.53
2022-08-04T10:32:39.986Z,38.37
2022-08-04T10:35:22.515Z,35.77
2022-08-04T10:38:04.680Z,39.50
2022-08-04T10:40:45.633Z,41.29
2022-08-04T10:44:03.860Z,39.50
2022-08-04T10:46:46.417Z,41.00
2022-08-04T10:49:23.898Z,41.86
2022-08-04T10:52:05.463Z,38.36
2022-08-04T10:54:50.192Z,41.59
2022-08-04T10:57:33.575Z,41.92
2022-08-04T11:00:04.911Z,38.34
2022-08-04T11:02:45.462Z,39.09
2022-08-04T11:05:21.921Z,35.93
2022-08-04T11:07:54.006Z,39.06
2022-08-04T11:10:25.698Z,39.58
2022-08-04T11:13:00.210Z,41.12
2022-08-04T11:15:52.982Z,41.34
2022-08-04T11:18:37.702Z,41.39
2022-08-04T11:21:16.765Z,40.56
2022-08-04T11:23:55.167Z,41.12
2022-08-04T11:26:30.674Z,40.33
2022-08-04T11:29:20.400Z,39.75
2022-08-04T11:31:52.009Z,40.03
2022-08-04T11:34:26.926Z,42.05
2022-08-04T11:37:03.002Z,43.42
2022-08-04T11:39:35.807Z,41.76
2022-08-04T11:42:08.046Z,40.38
2022-08-04T11:44:42.351Z,40.11
2022-08-04T11:47:22.255Z,36.47
2022-08-04T11:49:58.076Z,36.36
2022-08-04T11:52:28.216Z,40.81
2022-08-04T11:54:57.187Z,39.23
2022-08-04T11:57:25.727Z,36.06
2022-08-04T12:00:07.141Z,38.65
2022-08-04T12:02:55.998Z,41.10
2022-08-04T12:05:36.858Z,40.50
2022-08-04T12:08:25.799Z,40.16
2022-08-04T12:11:11.024Z,41.20
2022-08-04T12:14:01.947Z,40.48
2022-08-04T12:16:40.711Z,40.52
2022-08-04T12:19:21.629Z,43.47
2022-08-04T12:21:55.927Z,41.91
2022-08-04T12:24:34.463Z,42.33
2022-08-04T12:27:18.359Z,40.93
2022-08-04T12:30:57.204Z,41.39
2022-08-04T12:32:53.580Z,41.05
2022-08-04T12:35:25.479Z,40.92
2022-08-04T12:37:52.545Z,41.35
2022-08-04T12:40:29.931Z,40.59
2022-08-04T12:43:09.104Z,42.64
2022-08-04T12:45:36.667Z,43.94
2022-08-04T12:48:06.380Z,40.37
2022-08-04T12:50:34.452Z,41.81
2022-08-04T12:53:03.489Z,43.92
2022-08-04T12:55:34.145Z,41.91
2022-08-04T12:58:04.416Z,43.21
2022-08-04T13:00:41.599Z,42.36
2022-08-04T13:03:12.282Z,42.44
2022-08-04T13:05:43.188Z,41.04
2022-08-04T13:08:11.867Z,39.50
2022-08-04T13:10:47.506Z,39.80
2022-08-04T13:13:19.944Z,40.53
2022-08-04T13:16:01.693Z,40.08
2022-08-04T13:18:32.836Z,40.63
2022-08-04T13:21:20.452Z,37.21
2022-08-04T13:24:10.936Z,40.61
2022-08-04T13:26:58.277Z,39.41
2022-08-04T13:29:58.836Z,42.41
2022-08-04T13:32:28.766Z,40.64
2022-08-04T13:34:59.925Z,37.57
2022-08-04T13:37:33.519Z,37.30
2022-08-04T13:40:03.263Z,39.60
2022-08-04T13:42:31.546Z,41.98
2022-08-04T13:45:00.996Z,39.46
2022-08-04T13:47:31.864Z,39.54
2022-08-04T13:50:13.957Z,39.44
2022-08-04T13:52:42.165Z,37.81
2022-08-04T13:55:38.342Z,36.56
2022-08-04T13:58:19.635Z,39.51
2022-08-04T14:01:10.934Z,38.67
2022-08-04T14:03:53.312Z,39.26
2022-08-04T14:06:25.485Z,40.79
2022-08-04T14:08:57.861Z,39.29
2022-08-04T14:12:08.808Z,39.55
2022-08-04T14:14:31.195Z,38.27
2022-08-04T14:17:20.280Z,40.03
2022-08-04T14:19:47.905Z,37.94
2022-08-04T14:22:26.888Z,38.16
2022-08-04T14:25:15.678Z,38.14
2022-08-04T14:27:57.330Z,39.23
2022-08-04T14:30:29.791Z,39.38
2022-08-04T14:34:01.281Z,40.91
2022-08-04T14:35:59.044Z,37.57
2022-08-04T14:38:44.040Z,38.92
2022-08-04T14:41:11.662Z,37.97
2022-08-04T14:43:59.135Z,38.02
2022-08-04T14:46:35.109Z,38.04
2022-08-04T14:49:11.998Z,37.05
2022-08-04T14:51:59.552Z,38.90
2022-08-04T14:54:35.460Z,38.57
2022-08-04T14:57:05.537Z,39.81
2022-08-04T15:00:01.487Z,37.96
2022-08-04T15:02:29.891Z,36.50
2022-08-04T15:04:57.498Z,36.15
2022-08-04T15:07:24.790Z,38.59
2022-08-04T15:09:51.806Z,38.86
2022-08-04T15:12:18.882Z,36.67
2022-08-04T15:14:45.707Z,37.88
2022-08-04T15:17:30.001Z,39.43
2022-08-04T15:19:58.438Z,38.33
2022-08-04T15:22:25.441Z,37.76
2022-08-04T15:24:55.334Z,37.69
2022-08-04T15:27:27.337Z,36.87
2022-08-04T15:29:59.601Z,37.30
2022-08-04T15:32:34.816Z,38.89
2022-08-04T15:35:04.835Z,39.25
2022-08-04T15:37:56.798Z,37.73
2022-08-04T15:40:44.135Z,38.51
2022-08-04T15:43:55.294Z,39.38
2022-08-04T15:46:46.760Z,39.94
2022-08-04T15:49:21.345Z,39.54
2022-08-04T15:51:59.622Z,38.32
2022-08-04T15:54:32.768Z,37.41
2022-08-04T15:57:02.166Z,38.28
2022-08-04T16:00:00.385Z,38.07
2022-08-04T16:02:33.297Z,36.47
2022-08-04T16:05:20.515Z,39.01
2022-08-04T16:08:13.262Z,39.40
2022-08-04T16:10:45.344Z,36.68
2022-08-04T16:13:17.215Z,36.64
2022-08-04T16:15:51.635Z,36.50
2022-08-04T16:18:30.832Z,38.21
2022-08-04T16:21:02.498Z,38.96
2022-08-04T16:23:58.037Z,39.05
2022-08-04T16:26:38.258Z,37.78
2022-08-04T16:29:36.666Z,37.47
2022-08-04T16:32:12.491Z,37.68
2022-08-04T16:35:05.210Z,35.48
2022-08-04T16:37:36.142Z,36.61
2022-08-04T16:40:41.114Z,35.56
2022-08-04T16:43:20.785Z,35.42
2022-08-04T16:45:54.497Z,34.90
2022-08-04T16:48:29.450Z,35.89
2022-08-04T16:51:07.279Z,37.43
2022-08-04T16:54:03.769Z,38.35
2022-08-04T16:56:33.914Z,35.43
2022-08-04T16:59:09.803Z,36.13
2022-08-04T17:01:38.486Z,34.77
2022-08-04T17:04:06.506Z,34.95
2022-08-04T17:06:38.792Z,34.18
2022-08-04T17:09:10.079Z,34.16
2022-08-04T17:11:37.040Z,34.92
2022-08-04T17:14:05.681Z,35.73
2022-08-04T17:16:43.253Z,35.30
2022-08-04T17:19:25.234Z,35.37
2022-08-04T17:22:04.804Z,32.82
2022-08-04T17:24:35.211Z,35.19
2022-08-04T17:27:04.297Z,34.52
2022-08-04T17:29:49.336Z,33.61
2022-08-04T17:32:19.809Z,34.05
2022-08-04T17:35:05.117Z,34.76
2022-08-04T17:37:52.121Z,34.05
2022-08-04T17:40:25.741Z,34.53
2022-08-04T17:44:01.156Z,35.18
2022-08-04T17:46:28.169Z,32.93
2022-08-04T17:49:02.894Z,34.60
2022-08-04T17:52:05.208Z,33.77
2022-08-04T17:54:39.531Z,34.61
2022-08-04T17:57:27.419Z,33.62
2022-08-04T18:00:00.003Z,34.04
2022-08-04T18:02:36.097Z,33.53
2022-08-04T18:05:07.355Z,35.08
2022-08-04T18:08:46.277Z,35.41
2022-08-04T18:10:51.692Z,35.47
2022-08-04T18:13:27.213Z,34.82
2022-08-04T18:16:04.930Z,34.34
2022-08-04T18:18:32.296Z,35.24
2022-08-04T18:21:02.871Z,35.33
2022-08-04T18:23:31.847Z,35.20
2022-08-04T18:26:02.023Z,34.97
2022-08-04T18:28:30.730Z,34.00
2022-08-04T18:31:00.225Z,34.39
2022-08-04T18:33:37.804Z,34.39
2022-08-04T18:36:32.707Z,35.10
2022-08-04T18:38:59.496Z,35.04
2022-08-04T18:42:02.561Z,34.71
2022-08-04T18:44:36.369Z,34.68
2022-08-04T18:47:23.166Z,34.47
2022-08-04T18:51:00.231Z,34.86
2022-08-04T18:52:45.307Z,34.22
2022-08-04T18:55:55.615Z,33.53
2022-08-04T18:58:07.203Z,33.83
2022-08-04T19:00:35.378Z,34.00
2022-08-04T19:03:02.333Z,33.22
2022-08-04T19:05:37.746Z,33.62
2022-08-04T19:08:33.783Z,32.68
2022-08-04T19:10:59.420Z,33.77
2022-08-04T19:13:27.975Z,33.33
2022-08-04T19:15:54.883Z,33.40
2022-08-04T19:18:26.046Z,32.82
2022-08-04T19:20:55.120Z,32.97
2022-08-04T19:24:28.244Z,32.74
2022-08-04T19:26:17.947Z,32.12
2022-08-04T19:28:55.132Z,33.32
2022-08-04T19:31:34.035Z,32.02
2022-08-04T19:34:07.461Z,32.17
2022-08-04T19:36:34.955Z,31.83
2022-08-04T19:39:11.631Z,32.49
2022-08-04T19:42:05.735Z,31.61
2022-08-04T19:44:29.914Z,32.60
2022-08-04T19:47:00.797Z,32.72
2022-08-04T19:50:05.055Z,32.67
2022-08-04T19:52:34.016Z,32.19
2022-08-04T19:55:09.889Z,32.08
2022-08-04T19:57:46.315Z,30.35
2022-08-04T20:00:32.841Z,31.98
2022-08-04T20:03:02.014Z,30.08
2022-08-04T20:05:54.351Z,30.65
2022-08-04T20:08:17.680Z,31.98
2022-08-04T20:10:51.537Z,30.92
2022-08-04T20:13:20.886Z,30.65
2022-08-04T20:15:58.056Z,30.96
2022-08-04T20:18:36.782Z,31.20
2022-08-04T20:21:19.445Z,31.95
2022-08-04T20:23:52.500Z,29.59
2022-08-04T20:26:20.184Z,29.80
2022-08-04T20:28:51.807Z,30.34
2022-08-04T20:31:19.864Z,31.29
2022-08-04T20:33:49.290Z,30.63
2022-08-04T20:36:22.622Z,31.18
2022-08-04T20:38:53.166Z,30.78
2022-08-04T20:41:21.595Z,31.60
2022-08-04T20:43:49.994Z,29.89
2022-08-04T20:46:29.771Z,30.37
2022-08-04T20:48:58.402Z,30.84
2022-08-04T20:51:31.873Z,30.87
2022-08-04T20:54:01.893Z,31.12
2022-08-04T20:56:30.757Z,30.35
2022-08-04T20:58:59.981Z,30.83
2022-08-04T21:01:30.303Z,30.56
2022-08-04T21:04:27.427Z,31.33
2022-08-04T21:06:57.277Z,30.54
2022-08-04T21:09:37.262Z,29.71
2022-08-04T21:12:10.218Z,29.92
2022-08-04T21:14:37.144Z,30.43
2022-08-04T21:17:07.116Z,30.16
2022-08-04T21:19:36.783Z,29.38
2022-08-04T21:22:10.581Z,29.88
2022-08-04T21:24:38.137Z,28.15
2022-08-04T21:27:07.097Z,28.95
2022-08-04T21:29:37.060Z,31.34
2022-08-04T21:32:07.677Z,30.13
2022-08-04T21:34:39.310Z,30.09
2022-08-04T21:37:09.299Z,31.08
2022-08-04T21:39:43.914Z,30.73
2022-08-04T21:42:42.705Z,30.12
2022-08-04T21:45:11.142Z,29.99
2022-08-04T21:47:46.550Z,30.86
2022-08-04T21:50:20.045Z,29.78
2022-08-04T21:52:48.345Z,29.93
2022-08-04T21:55:15.954Z,29.34
2022-08-04T21:57:42.821Z,29.95
2022-08-04T22:00:10.904Z,31.02
2022-08-04T22:02:45.459Z,31.13
2022-08-04T22:05:15.911Z,31.20
2022-08-04T22:07:49.794Z,30.49
2022-08-04T22:10:32.071Z,30.84
2022-08-04T22:13:07.036Z,31.31
2022-08-04T22:16:04.691Z,30.78
2022-08-04T22:18:24.399Z,31.32
2022-08-04T22:20:54.904Z,30.64
2022-08-04T22:23:24.273Z,30.94
2022-08-04T22:25:53.719Z,30.88
2022-08-04T22:28:27.911Z,31.14
2022-08-04T22:30:56.353Z,31.07
2022-08-04T22:33:23.463Z,30.69
2022-08-04T22:36:11.938Z,30.72
2022-08-04T22:38:51.096Z,31.01
2022-08-04T22:41:21.247Z,31.06
2022-08-04T22:43:54.791Z,30.95
2022-08-04T22:46:27.257Z,30.14
2022-08-04T22:48:54.926Z,30.35
2022-08-04T22:51:22.763Z,29.34
2022-08-04T22:53:51.018Z,30.10
2022-08-04T22:56:37.254Z,30.20
2022-08-04T22:59:10.055Z,28.71
2022-08-04T23:01:59.180Z,28.83
2022-08-04T23:04:25.905Z,29.31
2022-08-04T23:06:54.766Z,30.06
2022-08-04T23:09:22.249Z,28.81
2022-08-04T23:12:24.330Z,28.38
2022-08-04T23:14:52.429Z,29.83
2022-08-04T23:17:19.162Z,29.67
2022-08-04T23:19:57.919Z,28.68
2022-08-04T23:22:37.077Z,28.77
2022-08-04T23:25:15.425Z,29.18
2022-08-04T23:27:43.717Z,29.11
2022-08-04T23:30:11.404Z,29.12
2022-08-04T23:32:38.332Z,29.35
2022-08-04T23:35:05.842Z,28.57
2022-08-04T23:37:36.618Z,29.34
2022-08-04T23:40:32.696Z,28.41
2022-08-04T23:43:01.956Z,29.46
2022-08-04T23:46:03.999Z,29.31
2022-08-04T23:48:19.052Z,27.87
2022-08-04T23:50:48.014Z,29.34
2022-08-04T23:53:18.423Z,29.61
2022-08-04T23:55:49.183Z,29.89
2022-08-04T23:58:18.949Z,28.17
